Time;durP1;ratioP1;P1;durP2;ratioP2;P2;SDS_P1;SDS_P2;PMS_P1;PMS_P2;Temp;Humidity;BMP_temperature;BMP_pressure;BME280_temperature;BME280_humidity;BME280_pressure;Samples;Min_cycle;Max_cycle;Signal;HPM_P1;HPM_P2
2023/12/25 00:00:13;;;;;;;12.23;2.38;;;12.90;99.90;;;;;;5067013;28;20080;-42
2023/12/25 00:02:38;;;;;;;13.23;2.67;;;12.90;99.90;;;;;;5033164;28;20488;-44
2023/12/25 00:05:04;;;;;;;18.60;2.83;;;12.90;99.90;;;;;;5035119;28;20113;-44
2023/12/25 00:07:30;;;;;;;22.98;3.83;;;12.90;99.90;;;;;;5033703;28;20029;-42
2023/12/25 00:09:56;;;;;;;18.58;2.42;;;12.80;99.90;;;;;;5034039;28;20124;-42
2023/12/25 00:12:23;;;;;;;18.90;2.53;;;12.70;99.90;;;;;;5035587;28;20078;-38
2023/12/25 00:14:48;;;;;;;5.07;0.82;;;12.60;99.90;;;;;;5034112;28;20498;-37
2023/12/25 00:17:15;;;;;;;11.77;1.85;;;12.50;99.90;;;;;;5034319;28;20171;-39
2023/12/25 00:19:41;;;;;;;16.52;1.85;;;12.50;99.90;;;;;;5034004;28;20037;-38
2023/12/25 00:22:07;;;;;;;10.15;1.33;;;12.50;99.90;;;;;;5034854;28;20033;-45
2023/12/25 00:24:33;;;;;;;11.10;1.38;;;12.40;99.90;;;;;;5018419;28;20030;-38
2023/12/25 00:26:58;;;;;;;4.43;1.20;;;12.40;99.90;;;;;;5034222;28;20542;-37
2023/12/25 00:29:24;;;;;;;13.07;2.05;;;12.30;99.90;;;;;;5019223;28;20114;-38
2023/12/25 00:31:50;;;;;;;8.57;1.85;;;12.30;99.90;;;;;;5023216;28;20119;-37
2023/12/25 00:34:15;;;;;;;8.23;1.20;;;12.30;99.90;;;;;;5034169;28;20017;-39
2023/12/25 00:36:41;;;;;;;5.53;1.25;;;12.30;99.90;;;;;;5034623;28;20025;-38
2023/12/25 00:39:08;;;;;;;5.03;1.92;;;12.30;99.90;;;;;;5034605;28;20053;-39
2023/12/25 00:41:33;;;;;;;9.77;1.60;;;12.20;99.90;;;;;;5032939;28;20026;-42
2023/12/25 00:43:59;;;;;;;6.25;1.70;;;12.20;99.90;;;;;;5033462;28;20083;-41
2023/12/25 00:46:25;;;;;;;11.43;1.88;;;12.20;99.90;;;;;;5034466;28;20474;-41
2023/12/25 00:48:51;;;;;;;9.77;2.67;;;12.20;99.90;;;;;;5034545;28;20537;-37
2023/12/25 00:51:16;;;;;;;11.70;1.48;;;12.20;99.90;;;;;;5034095;28;20104;-41
2023/12/25 00:53:42;;;;;;;15.50;2.13;;;12.20;99.90;;;;;;5034329;28;20035;-38
2023/12/25 00:56:08;;;;;;;14.40;1.90;;;12.20;99.90;;;;;;5020492;28;20033;-42
2023/12/25 00:58:34;;;;;;;21.63;2.20;;;12.20;99.90;;;;;;5028629;28;20112;-41
2023/12/25 01:01:00;;;;;;;12.95;2.22;;;12.20;99.90;;;;;;5028329;28;20359;-44
2023/12/25 01:03:26;;;;;;;14.65;2.42;;;12.20;99.90;;;;;;5034411;28;20573;-41
2023/12/25 01:05:52;;;;;;;13.70;2.10;;;12.20;99.90;;;;;;5034272;28;20489;-42
2023/12/25 01:08:18;;;;;;;15.70;2.17;;;12.30;99.90;;;;;;5034240;28;20033;-44
2023/12/25 01:10:43;;;;;;;16.60;2.88;;;12.30;99.90;;;;;;5033404;28;20029;-42
2023/12/25 01:13:09;;;;;;;17.77;2.00;;;12.30;99.90;;;;;;5033678;28;20367;-39
2023/12/25 01:15:34;;;;;;;13.30;2.95;;;12.30;99.90;;;;;;5033484;28;20065;-39
2023/12/25 01:18:00;;;;;;;9.15;1.50;;;12.30;99.90;;;;;;5033521;28;20040;-44
2023/12/25 01:20:26;;;;;;;11.40;1.73;;;12.30;99.90;;;;;;5032396;28;20410;-38
2023/12/25 01:22:51;;;;;;;6.88;1.48;;;12.30;99.90;;;;;;5032931;28;20508;-45
2023/12/25 01:25:17;;;;;;;24.45;2.03;;;12.30;99.90;;;;;;5033408;28;20095;-43
2023/12/25 01:27:43;;;;;;;11.02;1.88;;;12.30;99.90;;;;;;5033473;28;20429;-40
2023/12/25 01:30:10;;;;;;;11.25;1.77;;;12.30;99.90;;;;;;5032987;28;20030;-39
2023/12/25 01:32:36;;;;;;;10.40;1.48;;;12.30;99.90;;;;;;5033634;28;20034;-38
2023/12/25 01:35:02;;;;;;;3.72;1.33;;;12.30;99.90;;;;;;5033445;28;20452;-41
2023/12/25 01:37:30;;;;;;;6.50;1.15;;;12.30;99.90;;;;;;5032791;28;20079;-38
2023/12/25 01:39:56;;;;;;;8.95;1.80;;;12.30;99.90;;;;;;5033058;28;20032;-44
2023/12/25 01:42:21;;;;;;;9.23;1.20;;;12.40;99.90;;;;;;5033588;28;20378;-42
2023/12/25 01:44:47;;;;;;;6.38;0.98;;;12.40;99.90;;;;;;5033073;28;20036;-39
2023/12/25 01:47:17;;;;;;;10.07;1.02;;;12.40;99.90;;;;;;5033349;28;20044;-40
2023/12/25 01:49:42;;;;;;;13.50;1.73;;;12.40;99.90;;;;;;5033288;28;20044;-39
2023/12/25 01:52:08;;;;;;;7.82;1.05;;;12.40;99.90;;;;;;5032818;28;20430;-42
2023/12/25 01:54:36;;;;;;;6.95;1.05;;;12.40;99.90;;;;;;5033454;28;20500;-42
2023/12/25 01:57:02;;;;;;;3.15;1.00;;;12.30;99.90;;;;;;5032952;28;20072;-35
2023/12/25 01:59:29;;;;;;;8.75;1.05;;;12.20;99.90;;;;;;5030153;28;20115;-39
2023/12/25 02:01:57;;;;;;;12.30;2.15;;;12.20;99.90;;;;;;5031659;28;20112;-35
2023/12/25 02:04:23;;;;;;;3.90;0.93;;;12.10;99.90;;;;;;5032316;28;20494;-39
2023/12/25 02:06:51;;;;;;;7.65;1.60;;;12.10;99.90;;;;;;5032287;28;20045;-39
2023/12/25 02:09:18;;;;;;;16.13;2.45;;;12.20;99.90;;;;;;5032247;28;20477;-35
2023/12/25 02:11:43;;;;;;;21.95;3.20;;;12.20;99.90;;;;;;5031674;28;20486;-37
2023/12/25 02:14:11;;;;;;;19.20;2.40;;;12.10;99.90;;;;;;5031637;28;20055;-36
2023/12/25 02:16:39;;;;;;;12.93;1.77;;;12.10;99.90;;;;;;5032163;28;20516;-43
2023/12/25 02:19:12;;;;;;;13.90;1.98;;;12.10;99.90;;;;;;5032154;28;20030;-43
2023/12/25 02:21:41;;;;;;;13.52;2.00;;;12.10;99.90;;;;;;5032835;28;20080;-37
2023/12/25 02:24:12;;;;;;;14.30;2.03;;;12.10;99.90;;;;;;5032993;28;20032;-44
2023/12/25 02:26:38;;;;;;;11.57;2.05;;;12.10;99.90;;;;;;5032134;28;20053;-52
2023/12/25 02:29:03;;;;;;;14.45;2.67;;;12.10;99.90;;;;;;5032482;28;20032;-52
2023/12/25 02:31:29;;;;;;;7.35;2.00;;;12.10;99.90;;;;;;5031564;28;20502;-52
2023/12/25 02:33:55;;;;;;;20.02;2.47;;;12.00;99.90;;;;;;5032437;28;20470;-54
2023/12/25 02:36:20;;;;;;;12.80;2.60;;;12.10;99.90;;;;;;5032570;28;20026;-52
2023/12/25 02:38:46;;;;;;;12.95;1.42;;;12.00;99.90;;;;;;5032695;28;20541;-51
2023/12/25 02:41:11;;;;;;;12.55;1.20;;;12.10;99.90;;;;;;5028242;28;20108;-51
2023/12/25 02:43:37;;;;;;;16.13;1.92;;;12.10;99.90;;;;;;5032183;28;20250;-53
2023/12/25 02:46:03;;;;;;;5.22;1.40;;;12.10;99.90;;;;;;5032113;28;20538;-53
2023/12/25 02:48:28;;;;;;;10.32;1.88;;;12.10;99.90;;;;;;5032438;28;20033;-51
2023/12/25 02:50:54;;;;;;;6.13;1.63;;;12.10;99.90;;;;;;5032301;28;20375;-53
2023/12/25 02:53:20;;;;;;;17.63;1.95;;;12.10;99.90;;;;;;5028857;28;20036;-54
2023/12/25 02:55:46;;;;;;;10.38;2.40;;;12.10;99.90;;;;;;5027831;28;20030;-51
2023/12/25 02:58:11;;;;;;;12.93;1.63;;;12.20;99.90;;;;;;5012694;28;20483;-52
2023/12/25 03:00:37;;;;;;;12.32;1.98;;;12.20;99.90;;;;;;5030362;28;20040;-53
2023/12/25 03:03:02;;;;;;;11.65;1.55;;;12.20;99.90;;;;;;5031342;28;20036;-49
2023/12/25 03:05:28;;;;;;;12.15;1.73;;;12.20;99.90;;;;;;5026692;28;20364;-54
2023/12/25 03:07:54;;;;;;;14.18;1.95;;;12.20;99.90;;;;;;5032747;28;20079;-53
2023/12/25 03:10:19;;;;;;;17.63;2.25;;;12.30;99.90;;;;;;5031566;28;20017;-48
2023/12/25 03:12:45;;;;;;;18.02;1.73;;;12.30;99.90;;;;;;5023914;28;20025;-53
2023/12/25 03:15:10;;;;;;;13.35;1.98;;;12.30;99.90;;;;;;5031797;28;20041;-50
2023/12/25 03:17:36;;;;;;;18.65;1.75;;;12.30;99.90;;;;;;5032242;28;20481;-51
2023/12/25 03:20:03;;;;;;;7.88;1.33;;;12.20;99.90;;;;;;5031526;28;20022;-53
2023/12/25 03:22:29;;;;;;;17.23;2.13;;;12.30;99.90;;;;;;5032383;28;20539;-53
2023/12/25 03:24:54;;;;;;;12.98;1.77;;;12.30;99.90;;;;;;5032134;28;20033;-51
2023/12/25 03:27:20;;;;;;;9.85;1.27;;;12.30;99.90;;;;;;5032177;28;20382;-52
2023/12/25 03:29:46;;;;;;;12.07;1.52;;;12.30;99.90;;;;;;5032077;28;20056;-52
2023/12/25 03:32:13;;;;;;;10.88;4.05;;;12.30;99.90;;;;;;5032050;28;20036;-52
2023/12/25 03:34:49;;;;;;;14.32;2.65;;;12.30;99.90;;;;;;5031899;28;20504;-52
2023/12/25 03:37:15;;;;;;;16.33;2.97;;;12.30;99.90;;;;;;5031907;28;20577;-53
2023/12/25 03:39:41;;;;;;;24.08;2.15;;;12.30;99.90;;;;;;5032193;28;20089;-52
2023/12/25 03:42:06;;;;;;;12.77;2.38;;;12.30;99.90;;;;;;5030800;28;20033;-50
2023/12/25 03:44:32;;;;;;;19.00;4.32;;;12.30;99.90;;;;;;5035295;28;20029;-53
2023/12/25 03:46:58;;;;;;;14.18;2.65;;;12.40;99.90;;;;;;5035527;28;20083;-50
2023/12/25 03:49:25;;;;;;;13.45;1.90;;;12.40;99.90;;;;;;5035764;28;20389;-52
2023/12/25 03:51:51;;;;;;;7.05;1.70;;;12.40;99.90;;;;;;5035333;28;20115;-53
2023/12/25 03:54:17;;;;;;;27.75;2.55;;;12.40;99.90;;;;;;5034945;28;20534;-51
2023/12/25 03:56:42;;;;;;;9.40;2.17;;;12.40;99.90;;;;;;5034793;28;20563;-52
2023/12/25 03:59:09;;;;;;;12.63;2.08;;;12.40;99.90;;;;;;5034897;28;20052;-52
2023/12/25 04:01:38;;;;;;;8.57;2.08;;;12.50;99.90;;;;;;5035314;28;20047;-54
2023/12/25 04:04:04;;;;;;;13.43;3.30;;;12.50;99.90;;;;;;5029585;28;20022;-53
2023/12/25 04:06:29;;;;;;;13.63;1.75;;;12.40;99.90;;;;;;5019637;28;20028;-54
2023/12/25 04:08:55;;;;;;;12.68;1.90;;;12.50;99.90;;;;;;5033562;28;20464;-55
2023/12/25 04:11:22;;;;;;;10.93;1.88;;;12.50;99.90;;;;;;5035036;28;20071;-51
2023/12/25 04:13:53;;;;;;;13.60;1.83;;;12.50;99.90;;;;;;5026609;28;20064;-47
2023/12/25 04:16:20;;;;;;;21.75;2.15;;;12.60;99.90;;;;;;5030135;28;20170;-54
2023/12/25 04:18:46;;;;;;;16.48;2.00;;;12.50;99.90;;;;;;5031933;28;20501;-53
2023/12/25 04:21:28;;;;;;;12.13;2.25;;;12.50;99.90;;;;;;5034863;28;20044;-52
2023/12/25 04:23:55;;;;;;;7.25;1.67;;;12.50;99.90;;;;;;5035173;28;20390;-56
2023/12/25 04:26:22;;;;;;;7.88;1.48;;;12.50;99.90;;;;;;5034671;28;20466;-53
2023/12/25 04:28:49;;;;;;;19.05;3.42;;;12.50;99.90;;;;;;5034400;28;20025;-51
2023/12/25 04:31:15;;;;;;;5.95;2.25;;;12.50;99.90;;;;;;5034678;28;20036;-53
2023/12/25 04:33:41;;;;;;;17.55;1.83;;;12.50;99.90;;;;;;5026198;28;20112;-52
2023/12/25 04:36:06;;;;;;;16.02;2.15;;;12.50;99.90;;;;;;5023874;28;20069;-53
2023/12/25 04:38:32;;;;;;;11.05;1.65;;;12.50;99.90;;;;;;5034531;28;20537;-53
2023/12/25 04:40:59;;;;;;;10.82;2.97;;;12.50;99.90;;;;;;5033913;28;20093;-53
2023/12/25 04:43:24;;;;;;;11.45;3.60;;;12.40;99.90;;;;;;5033612;28;20108;-51
2023/12/25 04:45:50;;;;;;;11.05;2.40;;;12.40;99.90;;;;;;5033001;28;20442;-52
2023/12/25 04:48:16;;;;;;;16.50;2.30;;;12.50;99.90;;;;;;5034337;28;20029;-45
2023/12/25 04:50:42;;;;;;;12.80;2.22;;;12.50;99.90;;;;;;5034177;28;20116;-40
2023/12/25 04:53:08;;;;;;;13.00;2.70;;;12.50;99.90;;;;;;5033900;28;20033;-42
2023/12/25 04:55:34;;;;;;;12.95;2.85;;;12.50;99.90;;;;;;5034269;28;20513;-44
2023/12/25 04:57:59;;;;;;;13.68;2.25;;;12.40;99.90;;;;;;5033644;28;20087;-46
2023/12/25 05:00:25;;;;;;;16.27;2.42;;;12.40;99.90;;;;;;5032573;28;20029;-41
2023/12/25 05:02:51;;;;;;;8.30;1.80;;;12.40;99.90;;;;;;5033918;28;20424;-44
2023/12/25 05:05:16;;;;;;;8.85;2.05;;;12.40;99.90;;;;;;5013113;28;20474;-40
2023/12/25 05:07:42;;;;;;;10.55;1.90;;;12.40;99.90;;;;;;5014530;28;20050;-44
2023/12/25 05:10:08;;;;;;;7.18;1.73;;;12.40;99.90;;;;;;5029447;28;20036;-43
2023/12/25 05:12:34;;;;;;;5.88;1.35;;;12.40;99.90;;;;;;5033855;28;20604;-41
2023/12/25 05:14:59;;;;;;;22.90;2.30;;;12.40;99.90;;;;;;5033410;28;20111;-42
2023/12/25 05:17:25;;;;;;;13.93;1.80;;;12.50;99.90;;;;;;5033505;28;20075;-44
2023/12/25 05:19:51;;;;;;;7.97;1.80;;;12.40;99.90;;;;;;5033590;28;20451;-39
2023/12/25 05:22:16;;;;;;;17.00;1.85;;;12.40;99.90;;;;;;5033314;28;20025;-45
2023/12/25 05:24:42;;;;;;;17.95;2.22;;;12.50;99.90;;;;;;5033202;28;20386;-47
2023/12/25 05:27:08;;;;;;;11.95;1.25;;;12.40;99.90;;;;;;5033674;28;20485;-44
2023/12/25 05:29:34;;;;;;;10.73;1.70;;;12.40;99.90;;;;;;5033239;28;20060;-54
2023/12/25 05:32:00;;;;;;;11.82;2.00;;;12.40;99.90;;;;;;5033527;28;20038;-52
2023/12/25 05:34:27;;;;;;;8.27;1.25;;;12.50;99.90;;;;;;5033411;28;20486;-53
2023/12/25 05:36:53;;;;;;;5.45;0.95;;;12.40;99.90;;;;;;5033360;28;20559;-53
2023/12/25 05:39:19;;;;;;;12.98;2.60;;;12.40;99.90;;;;;;5033198;28;20025;-52
2023/12/25 05:41:44;;;;;;;6.03;1.48;;;12.40;99.90;;;;;;5033422;28;20556;-51
2023/12/25 05:44:10;;;;;;;5.13;1.08;;;12.40;99.90;;;;;;5033046;28;20049;-55
2023/12/25 05:46:36;;;;;;;7.90;1.80;;;12.50;99.90;;;;;;5031893;28;20095;-53
2023/12/25 05:49:03;;;;;;;19.08;2.08;;;12.50;99.90;;;;;;5032986;28;20083;-53
2023/12/25 05:51:29;;;;;;;4.63;1.38;;;12.50;99.90;;;;;;5033346;28;20482;-55
2023/12/25 05:53:54;;;;;;;4.65;1.38;;;12.40;99.90;;;;;;5033057;28;20017;-52
2023/12/25 05:56:20;;;;;;;8.45;0.90;;;12.50;99.90;;;;;;5033418;28;20044;-54
2023/12/25 05:58:45;;;;;;;9.25;0.85;;;12.40;99.90;;;;;;5032597;28;20025;-52
2023/12/25 06:01:13;;;;;;;7.55;0.85;;;12.40;99.90;;;;;;5031817;28;20029;-53
2023/12/25 06:03:39;;;;;;;12.77;1.30;;;12.50;99.90;;;;;;5033202;28;20461;-52
2023/12/25 06:06:05;;;;;;;5.35;0.77;;;12.40;99.90;;;;;;5032330;28;20017;-53
2023/12/25 06:08:30;;;;;;;1.40;0.75;;;12.40;99.90;;;;;;5032680;28;20029;-49
2023/12/25 06:10:57;;;;;;;1.08;0.70;;;12.40;99.90;;;;;;5032739;28;20094;-53
2023/12/25 06:13:23;;;;;;;6.50;0.73;;;12.40;99.90;;;;;;5032627;28;20021;-53
2023/12/25 06:15:51;;;;;;;0.30;0.10;;;12.30;99.90;;;;;;5032255;28;20084;-54
2023/12/25 06:18:17;;;;;;;7.03;0.60;;;12.40;99.90;;;;;;5032914;28;20532;-54
2023/12/25 06:20:43;;;;;;;3.90;0.90;;;12.30;99.90;;;;;;5032843;28;20056;-50
2023/12/25 06:23:09;;;;;;;6.72;0.65;;;12.40;99.90;;;;;;5032561;28;20528;-52
2023/12/25 06:25:35;;;;;;;1.67;0.43;;;12.40;99.90;;;;;;5032487;28;20029;-51
2023/12/25 06:28:01;;;;;;;3.22;0.73;;;12.40;99.90;;;;;;5032615;28;20482;-53
2023/12/25 06:30:26;;;;;;;3.55;1.38;;;12.30;99.90;;;;;;5032247;28;20037;-51
2023/12/25 06:32:53;;;;;;;1.02;0.65;;;12.30;99.90;;;;;;5032546;28;20390;-52
2023/12/25 06:35:18;;;;;;;6.90;1.30;;;12.30;99.90;;;;;;5032413;28;20075;-55
2023/12/25 06:37:44;;;;;;;3.42;0.50;;;12.30;99.90;;;;;;5032598;28;20034;-53
2023/12/25 06:40:10;;;;;;;11.38;1.25;;;12.40;99.90;;;;;;5032140;28;20037;-40
2023/12/25 06:42:36;;;;;;;1.95;1.35;;;12.30;99.90;;;;;;5012899;28;20025;-45
2023/12/25 06:45:01;;;;;;;8.02;1.45;;;12.30;99.90;;;;;;5024355;28;20025;-41
2023/12/25 06:47:27;;;;;;;1.95;0.43;;;12.30;99.90;;;;;;5032519;28;20024;-42
2023/12/25 06:49:53;;;;;;;6.40;0.90;;;12.20;99.90;;;;;;5032363;28;20037;-46
2023/12/25 06:52:19;;;;;;;1.77;0.43;;;12.20;99.90;;;;;;5032501;28;20029;-40
2023/12/25 06:54:45;;;;;;;5.13;0.60;;;12.20;99.90;;;;;;5032219;28;20033;-41
2023/12/25 06:57:13;;;;;;;0.65;0.35;;;12.10;99.90;;;;;;5032547;28;20025;-41
2023/12/25 06:59:40;;;;;;;2.90;0.40;;;12.10;99.90;;;;;;5031876;28;20022;-43
2023/12/25 07:02:07;;;;;;;3.40;0.68;;;12.10;99.90;;;;;;5032312;28;20478;-46
2023/12/25 07:04:33;;;;;;;4.35;1.55;;;12.10;99.90;;;;;;5037168;28;20525;-41
2023/12/25 07:06:59;;;;;;;5.05;1.45;;;12.10;99.90;;;;;;5032441;28;20029;-44
2023/12/25 07:09:25;;;;;;;2.85;0.93;;;12.10;99.90;;;;;;5032253;28;20025;-43
2023/12/25 07:11:51;;;;;;;7.00;0.85;;;12.00;99.90;;;;;;5032015;28;20036;-45
2023/12/25 07:14:17;;;;;;;10.85;0.60;;;12.00;99.90;;;;;;5031730;28;20398;-42
2023/12/25 07:16:43;;;;;;;6.18;0.88;;;12.00;99.90;;;;;;5033084;28;20025;-41
2023/12/25 07:19:08;;;;;;;1.33;0.55;;;12.00;99.90;;;;;;5035670;28;20643;-43
2023/12/25 07:21:34;;;;;;;5.57;0.50;;;12.00;99.90;;;;;;5036306;28;20018;-44
2023/12/25 07:24:00;;;;;;;2.83;0.40;;;12.00;99.90;;;;;;5035624;28;20021;-41
2023/12/25 07:26:25;;;;;;;6.55;0.82;;;11.90;99.90;;;;;;5035668;28;20034;-42
2023/12/25 07:28:51;;;;;;;9.55;0.70;;;11.90;99.90;;;;;;5030737;28;20437;-46
2023/12/25 07:31:20;;;;;;;1.75;0.50;;;11.90;99.90;;;;;;5046289;28;20025;-42
2023/12/25 07:33:47;;;;;;;2.30;0.80;;;11.90;99.90;;;;;;5035510;28;20025;-43
2023/12/25 07:36:12;;;;;;;3.97;0.73;;;11.90;99.90;;;;;;5035881;28;20171;-47
2023/12/25 07:38:41;;;;;;;12.32;0.98;;;11.90;99.90;;;;;;5045073;28;20104;-45
2023/12/25 07:41:08;;;;;;;7.72;0.90;;;11.80;99.90;;;;;;5035468;28;20462;-46
2023/12/25 07:43:35;;;;;;;1.52;0.55;;;11.80;99.90;;;;;;5033494;28;20466;-44
2023/12/25 07:46:04;;;;;;;5.28;0.95;;;11.90;99.90;;;;;;5016141;28;20022;-42
2023/12/25 07:48:30;;;;;;;1.40;0.90;;;11.90;99.90;;;;;;5024589;28;20458;-45
2023/12/25 07:50:55;;;;;;;3.28;0.70;;;11.90;99.90;;;;;;5035399;28;20029;-41
2023/12/25 07:53:21;;;;;;;4.68;1.77;;;11.90;99.90;;;;;;5035053;28;20434;-50
2023/12/25 07:55:46;;;;;;;8.27;1.17;;;12.00;99.90;;;;;;5035224;28;20037;-54
2023/12/25 07:58:14;;;;;;;3.17;1.08;;;12.00;99.90;;;;;;5035320;28;20061;-54
2023/12/25 08:00:43;;;;;;;5.38;1.00;;;12.00;99.90;;;;;;5034011;28;20026;-53
2023/12/25 08:03:12;;;;;;;4.70;1.00;;;12.10;99.90;;;;;;5034643;28;20385;-56
2023/12/25 08:05:38;;;;;;;6.25;0.65;;;12.10;99.90;;;;;;5034951;28;20029;-54
2023/12/25 08:08:08;;;;;;;4.28;0.80;;;12.20;99.90;;;;;;5033921;28;20485;-52
2023/12/25 08:10:34;;;;;;;5.30;1.27;;;12.20;99.90;;;;;;5034918;28;20131;-52
2023/12/25 08:13:01;;;;;;;4.97;0.45;;;12.20;99.90;;;;;;5034785;28;20573;-52
2023/12/25 08:15:30;;;;;;;1.48;0.17;;;12.20;99.90;;;;;;5034453;28;20042;-54
2023/12/25 08:17:56;;;;;;;5.72;0.60;;;12.10;99.90;;;;;;5034919;28;20034;-53
2023/12/25 08:20:21;;;;;;;1.20;0.45;;;12.10;99.90;;;;;;5034969;28;20052;-51
2023/12/25 08:22:47;;;;;;;3.13;1.05;;;12.10;99.90;;;;;;5030337;28;20018;-53
2023/12/25 08:25:13;;;;;;;0.60;0.25;;;12.10;99.90;;;;;;5015142;28;20519;-57
2023/12/25 08:27:39;;;;;;;5.50;0.93;;;12.10;99.90;;;;;;5022942;28;20018;-53
2023/12/25 08:30:05;;;;;;;6.68;0.93;;;12.10;99.90;;;;;;5033883;28;20090;-54
2023/12/25 08:32:31;;;;;;;4.50;1.60;;;12.20;99.90;;;;;;5034533;28;20029;-54
2023/12/25 08:34:57;;;;;;;4.43;0.90;;;12.20;99.90;;;;;;5034373;28;20474;-51
2023/12/25 08:37:22;;;;;;;5.60;0.70;;;12.10;99.90;;;;;;5034694;28;20029;-54
2023/12/25 08:39:48;;;;;;;3.40;0.88;;;12.10;99.90;;;;;;5034101;28;20104;-53
2023/12/25 08:42:15;;;;;;;3.40;0.70;;;12.10;99.90;;;;;;5039984;28;20104;-51
2023/12/25 08:44:41;;;;;;;4.28;0.60;;;12.10;99.90;;;;;;5039164;28;20017;-54
2023/12/25 08:47:07;;;;;;;3.33;0.52;;;12.10;99.90;;;;;;5034224;28;20064;-52
2023/12/25 08:49:33;;;;;;;5.40;0.70;;;12.20;99.90;;;;;;5033133;28;20065;-54
2023/12/25 08:51:59;;;;;;;2.17;0.47;;;12.20;99.90;;;;;;5034443;28;20071;-51
2023/12/25 08:54:24;;;;;;;5.10;0.60;;;12.20;99.90;;;;;;5034407;28;20037;-52
2023/12/25 08:56:53;;;;;;;2.38;0.35;;;12.20;99.90;;;;;;5032632;28;20083;-53
2023/12/25 08:59:19;;;;;;;1.48;0.35;;;12.10;99.90;;;;;;5034103;28;20466;-54
2023/12/25 09:01:44;;;;;;;7.53;1.27;;;12.20;99.90;;;;;;5034083;28;20017;-53
2023/12/25 09:04:10;;;;;;;1.90;0.70;;;12.20;99.90;;;;;;5034166;28;20051;-52
2023/12/25 09:06:36;;;;;;;5.00;0.82;;;12.20;99.90;;;;;;5033883;28;20025;-52
2023/12/25 09:09:02;;;;;;;4.95;0.60;;;12.30;99.90;;;;;;5033556;28;20017;-54
2023/12/25 09:11:27;;;;;;;1.98;0.35;;;12.30;99.90;;;;;;5034187;28;20465;-55
2023/12/25 09:13:53;;;;;;;1.35;0.32;;;12.30;99.90;;;;;;5033554;28;20041;-54
2023/12/25 09:16:19;;;;;;;5.18;0.80;;;12.30;99.90;;;;;;5034117;28;20013;-54
2023/12/25 09:18:44;;;;;;;6.10;1.02;;;12.40;99.90;;;;;;5033375;28;20095;-52
2023/12/25 09:21:10;;;;;;;3.35;0.50;;;12.30;99.90;;;;;;5032548;28;20029;-54
2023/12/25 09:23:36;;;;;;;10.27;1.08;;;12.20;99.90;;;;;;5033727;28;20079;-54
2023/12/25 09:26:02;;;;;;;6.18;0.63;;;12.30;99.90;;;;;;5033697;28;20385;-53
2023/12/25 09:28:27;;;;;;;2.05;0.50;;;12.30;99.90;;;;;;5033367;28;20058;-53
2023/12/25 09:30:53;;;;;;;2.08;0.77;;;12.40;99.90;;;;;;5033526;28;20064;-54
2023/12/25 09:33:19;;;;;;;2.17;0.38;;;12.50;99.90;;;;;;5033624;28;20437;-56
2023/12/25 09:35:45;;;;;;;5.68;0.60;;;12.50;99.90;;;;;;5033473;28;20026;-55
2023/12/25 09:38:11;;;;;;;7.10;0.70;;;12.50;99.90;;;;;;5033295;28;20052;-53
2023/12/25 09:40:36;;;;;;;1.02;0.45;;;12.50;99.90;;;;;;5032616;28;20021;-54
2023/12/25 09:43:02;;;;;;;1.58;0.52;;;12.50;99.90;;;;;;5020521;28;20084;-53
2023/12/25 09:45:37;;;;;;;10.18;0.90;;;12.60;99.90;;;;;;5033329;28;20025;-52
2023/12/25 09:48:04;;;;;;;3.88;0.52;;;12.60;99.90;;;;;;5033229;28;20033;-54
2023/12/25 09:50:36;;;;;;;3.22;0.65;;;12.60;99.90;;;;;;5026560;28;20018;-54
2023/12/25 09:53:02;;;;;;;3.50;0.40;;;12.60;99.90;;;;;;5031298;28;20040;-55
2023/12/25 09:55:27;;;;;;;8.60;0.93;;;12.60;99.90;;;;;;5033496;28;20395;-54
2023/12/25 09:57:56;;;;;;;2.20;0.60;;;12.60;99.90;;;;;;5032641;28;20036;-50
2023/12/25 10:00:22;;;;;;;10.18;1.10;;;12.50;99.90;;;;;;5032782;28;20056;-55
2023/12/25 10:02:49;;;;;;;6.85;0.93;;;12.50;99.90;;;;;;5032847;28;20476;-55
2023/12/25 10:05:15;;;;;;;1.75;0.50;;;12.60;99.90;;;;;;5032691;28;20036;-53
2023/12/25 10:07:41;;;;;;;1.55;0.43;;;12.70;99.90;;;;;;5032785;28;20389;-54
2023/12/25 10:10:09;;;;;;;0.55;0.30;;;12.70;99.90;;;;;;5032802;28;20540;-55
2023/12/25 10:12:35;;;;;;;3.78;0.68;;;12.60;99.90;;;;;;5032860;28;20466;-55
2023/12/25 10:15:01;;;;;;;2.40;0.45;;;12.60;99.90;;;;;;5049415;28;20106;-52
2023/12/25 10:17:26;;;;;;;2.22;0.60;;;12.50;99.90;;;;;;5036919;28;20032;-53
2023/12/25 10:19:57;;;;;;;1.38;0.30;;;12.50;99.90;;;;;;5033011;28;20470;-53
2023/12/25 10:22:34;;;;;;;19.20;1.60;;;12.60;99.90;;;;;;5032136;28;20049;-53
2023/12/25 10:25:11;;;;;;;5.53;0.50;;;12.60;99.90;;;;;;5032598;28;20108;-54
2023/12/25 10:27:42;;;;;;;2.83;0.60;;;12.60;99.90;;;;;;5031013;28;20029;-53
2023/12/25 10:30:19;;;;;;;4.13;1.20;;;12.70;99.90;;;;;;5032954;28;20387;-55
2023/12/25 10:32:45;;;;;;;10.25;0.80;;;12.70;99.90;;;;;;5032169;28;20539;-54
2023/12/25 10:35:18;;;;;;;4.35;0.50;;;12.80;99.90;;;;;;5032175;28;20080;-55
2023/12/25 10:37:45;;;;;;;3.67;0.60;;;12.80;99.90;;;;;;5032666;28;20025;-54
2023/12/25 10:40:23;;;;;;;4.20;0.95;;;12.90;99.90;;;;;;5032335;28;20473;-54
2023/12/25 10:42:51;;;;;;;4.10;0.40;;;12.90;99.90;;;;;;5031743;28;20068;-52
2023/12/25 10:45:21;;;;;;;2.35;1.60;;;12.90;99.90;;;;;;5032905;28;20474;-41
2023/12/25 10:47:50;;;;;;;0.60;0.35;;;12.90;99.90;;;;;;5032878;28;20108;-42
2023/12/25 10:50:20;;;;;;;5.47;0.82;;;12.90;99.90;;;;;;5032486;28;20048;-43
2023/12/25 10:52:50;;;;;;;2.47;0.63;;;13.00;99.90;;;;;;5034833;28;20533;-44
2023/12/25 10:55:22;;;;;;;8.57;0.98;;;13.00;99.90;;;;;;5033927;28;20481;-44
2023/12/25 10:57:48;;;;;;;3.63;0.50;;;12.90;99.90;;;;;;5035486;28;20037;-41
2023/12/25 11:00:15;;;;;;;3.55;1.52;;;12.90;99.90;;;;;;5035908;28;20398;-41
2023/12/25 11:02:41;;;;;;;0.85;0.40;;;13.00;99.90;;;;;;5018947;28;20026;-43
2023/12/25 11:05:09;;;;;;;2.90;0.68;;;13.10;99.90;;;;;;5017125;28;20029;-44
2023/12/25 11:07:34;;;;;;;2.93;0.57;;;13.10;99.90;;;;;;5026738;28;20041;-43
2023/12/25 11:10:01;;;;;;;1.05;0.70;;;13.20;99.90;;;;;;5035676;28;20264;-55
2023/12/25 11:12:27;;;;;;;1.08;0.43;;;13.10;99.90;;;;;;5036098;28;20040;-46
2023/12/25 11:14:54;;;;;;;3.08;0.35;;;13.20;99.90;;;;;;5036062;28;20095;-42
2023/12/25 11:17:20;;;;;;;3.53;0.45;;;13.10;99.90;;;;;;5035468;28;20038;-41
2023/12/25 11:19:46;;;;;;;4.68;0.47;;;13.00;99.90;;;;;;5036098;28;20379;-41
2023/12/25 11:22:28;;;;;;;5.15;0.50;;;13.00;99.90;;;;;;5036347;28;20462;-42
2023/12/25 11:24:56;;;;;;;2.75;0.57;;;13.00;99.90;;;;;;5036004;28;20029;-43
2023/12/25 11:27:22;;;;;;;1.42;0.65;;;13.00;99.90;;;;;;5035508;28;20402;-44
2023/12/25 11:29:49;;;;;;;2.30;0.30;;;13.00;99.90;;;;;;5035655;28;20022;-42
2023/12/25 11:32:20;;;;;;;0.38;0.20;;;13.00;99.90;;;;;;5033354;28;20382;-46
2023/12/25 11:34:49;;;;;;;0.95;0.40;;;13.10;99.90;;;;;;5035399;28;20025;-45
2023/12/25 11:37:20;;;;;;;2.70;0.60;;;13.00;99.90;;;;;;5034484;28;20025;-44
2023/12/25 11:40:12;;;;;;;0.35;0.25;;;13.10;99.90;;;;;;5035386;28;20025;-43
2023/12/25 11:42:38;;;;;;;2.78;0.45;;;13.20;99.90;;;;;;5034592;28;20489;-42
2023/12/25 11:45:09;;;;;;;2.63;0.50;;;13.20;99.90;;;;;;5034967;28;20031;-41
2023/12/25 11:47:49;;;;;;;3.88;0.57;;;13.10;99.90;;;;;;5027652;28;20132;-46
2023/12/25 11:50:15;;;;;;;5.45;0.57;;;13.20;99.90;;;;;;5035560;28;20036;-43
2023/12/25 11:52:46;;;;;;;4.95;0.60;;;13.30;99.90;;;;;;5035370;28;20030;-46
2023/12/25 11:55:18;;;;;;;6.25;1.33;;;13.30;99.90;;;;;;5034895;28;20026;-42
2023/12/25 11:57:44;;;;;;;5.43;1.10;;;13.40;99.90;;;;;;5035124;28;20056;-45
2023/12/25 12:00:17;;;;;;;2.35;0.40;;;13.40;99.90;;;;;;5035268;28;20478;-43
2023/12/25 12:02:44;;;;;;;2.90;0.45;;;13.20;99.90;;;;;;5035165;28;20048;-44
2023/12/25 12:05:10;;;;;;;1.33;0.40;;;13.20;99.90;;;;;;5034159;28;20032;-41
2023/12/25 12:07:36;;;;;;;4.35;0.40;;;13.20;99.90;;;;;;5035275;28;20478;-44
2023/12/25 12:10:02;;;;;;;5.10;0.65;;;13.20;99.90;;;;;;5035038;28;20025;-49
2023/12/25 12:12:28;;;;;;;2.40;0.32;;;13.10;99.90;;;;;;5035162;28;20560;-44
2023/12/25 12:14:54;;;;;;;0.75;0.30;;;13.20;99.90;;;;;;5034436;28;20053;-42
2023/12/25 12:17:20;;;;;;;5.38;0.63;;;13.20;99.90;;;;;;5034930;28;20557;-42
2023/12/25 12:19:46;;;;;;;1.52;0.60;;;13.20;99.90;;;;;;5035041;28;20041;-42
2023/12/25 12:22:12;;;;;;;2.55;0.50;;;13.10;99.90;;;;;;5035055;28;20433;-50
2023/12/25 12:24:38;;;;;;;4.43;0.70;;;13.00;99.90;;;;;;5030013;28;20478;-43
2023/12/25 12:27:08;;;;;;;3.83;0.88;;;13.10;99.90;;;;;;5034711;28;20079;-46
2023/12/25 12:29:33;;;;;;;1.55;0.68;;;13.10;99.90;;;;;;5034827;28;20093;-44
2023/12/25 12:32:00;;;;;;;4.00;0.50;;;13.20;99.90;;;;;;5034657;28;20057;-44
2023/12/25 12:34:26;;;;;;;2.40;0.80;;;13.20;99.90;;;;;;5034815;28;20033;-45
2023/12/25 12:36:59;;;;;;;6.75;0.68;;;13.20;99.90;;;;;;5066731;28;20031;-43
2023/12/25 12:39:26;;;;;;;5.63;0.85;;;13.20;99.90;;;;;;5034139;28;20568;-43